Time;durP1;ratioP1;P1;durP2;ratioP2;P2;SDS_P1;SDS_P2;PMS_P1;PMS_P2;Temp;Humidity;BMP_temperature;BMP_pressure;BME280_temperature;BME280_humidity;BME280_pressure;Samples;Min_cycle;Max_cycle;Signal;HPM_P1;HPM_P2
2021/07/23 00:07:50;;;;;;;3.83;2.53;;;21.60;64.10;;;;;;20997910;28;20036;-19
2021/07/23 00:17:51;;;;;;;6.32;2.58;;;21.60;63.90;;;;;;20997844;28;20573;-20
2021/07/23 00:27:51;;;;;;;5.05;2.92;;;21.60;63.50;;;;;;20994674;28;20031;-19
2021/07/23 00:37:52;;;;;;;4.45;2.85;;;21.60;63.50;;;;;;20993994;28;20032;-19
2021/07/23 00:48:01;;;;;;;3.72;3.00;;;21.60;63.30;;;;;;20994656;28;20032;-19
2021/07/23 00:58:02;;;;;;;6.53;3.35;;;21.60;63.00;;;;;;20993136;28;20107;-19
2021/07/23 01:08:03;;;;;;;3.33;2.50;;;21.60;63.00;;;;;;20991279;28;20039;-20
2021/07/23 01:18:04;;;;;;;5.50;2.25;;;21.60;62.90;;;;;;20990680;28;20036;-19
2021/07/23 01:28:04;;;;;;;3.75;2.72;;;21.50;62.60;;;;;;20963483;22;20044;-19
2021/07/23 01:38:06;;;;;;;4.90;2.15;;;21.50;62.80;;;;;;20855687;28;20382;-19
2021/07/23 01:48:07;;;;;;;3.75;2.00;;;21.50;62.60;;;;;;20837233;28;20028;-19
2021/07/23 01:58:08;;;;;;;6.43;2.92;;;21.40;62.20;;;;;;20835491;28;20030;-19
2021/07/23 02:08:08;;;;;;;3.05;2.35;;;21.50;62.10;;;;;;20822210;28;20068;-19
2021/07/23 02:18:09;;;;;;;3.60;1.70;;;21.40;61.80;;;;;;20821738;28;20037;-19
2021/07/23 02:28:09;;;;;;;5.25;2.33;;;21.40;61.50;;;;;;20820679;28;20026;-19
2021/07/23 02:38:10;;;;;;;3.20;2.58;;;21.40;61.40;;;;;;20831443;28;20580;-19
2021/07/23 02:48:10;;;;;;;6.00;2.53;;;21.40;61.30;;;;;;20819763;28;20445;-19
2021/07/23 02:58:11;;;;;;;4.13;1.85;;;21.40;61.40;;;;;;20817919;28;20052;-19
2021/07/23 03:08:12;;;;;;;3.50;2.30;;;21.40;61.00;;;;;;20830466;28;20109;-19
2021/07/23 03:18:12;;;;;;;3.30;1.90;;;21.40;60.90;;;;;;20834913;28;20041;-18
2021/07/23 03:28:13;;;;;;;3.45;2.03;;;21.30;60.70;;;;;;20833905;28;20028;-18
2021/07/23 03:38:13;;;;;;;6.35;2.38;;;21.30;61.00;;;;;;20834388;28;20025;-18
2021/07/23 03:48:14;;;;;;;7.65;2.53;;;21.30;60.70;;;;;;20862290;28;20529;-18
2021/07/23 03:58:15;;;;;;;2.43;1.80;;;21.30;60.80;;;;;;20862768;28;20088;-19
2021/07/23 04:08:15;;;;;;;4.82;2.35;;;21.30;60.30;;;;;;20865644;28;20507;-18
2021/07/23 04:18:16;;;;;;;3.95;2.00;;;21.30;60.20;;;;;;20870752;28;20147;-18
2021/07/23 04:28:16;;;;;;;3.67;2.10;;;21.30;60.20;;;;;;20865153;28;20670;-19
2021/07/23 04:38:17;;;;;;;3.25;2.00;;;21.20;60.10;;;;;;20866912;28;20030;-19
2021/07/23 04:48:18;;;;;;;3.25;1.67;;;21.20;60.40;;;;;;20871688;28;20038;-18
2021/07/23 04:58:18;;;;;;;3.63;2.30;;;21.20;60.00;;;;;;20863465;28;20033;-19
2021/07/23 05:08:19;;;;;;;4.35;2.22;;;21.30;60.10;;;;;;20856638;28;20040;-18
2021/07/23 05:18:20;;;;;;;3.05;2.63;;;21.20;60.20;;;;;;20838425;28;20044;-20
2021/07/23 05:28:20;;;;;;;2.42;1.80;;;21.20;60.20;;;;;;20847716;28;20378;-19
2021/07/23 05:38:21;;;;;;;3.25;1.92;;;21.30;60.40;;;;;;20809144;28;20029;-18
2021/07/23 05:48:21;;;;;;;3.75;2.40;;;21.30;60.60;;;;;;20842270;28;20033;-21
2021/07/23 05:58:22;;;;;;;4.25;2.00;;;21.30;60.60;;;;;;20839308;28;20037;-19
2021/07/23 06:08:22;;;;;;;4.07;2.42;;;21.30;60.90;;;;;;20821231;28;20029;-19
2021/07/23 06:18:23;;;;;;;9.68;3.15;;;21.40;61.20;;;;;;20820102;28;20041;-19
2021/07/23 06:28:24;;;;;;;13.10;5.18;;;21.30;61.20;;;;;;20820118;28;20041;-19
2021/07/23 06:38:25;;;;;;;15.48;5.22;;;21.30;61.50;;;;;;20792587;28;20030;-19
2021/07/23 06:48:25;;;;;;;20.55;4.35;;;21.30;60.90;;;;;;20819159;28;20454;-19
2021/07/23 06:58:26;;;;;;;7.85;3.03;;;21.30;60.40;;;;;;20819162;28;20374;-19
2021/07/23 07:08:27;;;;;;;11.13;3.10;;;21.30;60.20;;;;;;20817031;28;20060;-21
2021/07/23 07:18:28;;;;;;;10.07;2.90;;;21.30;60.40;;;;;;20817558;28;20665;-19
2021/07/23 07:28:28;;;;;;;7.88;3.28;;;21.30;60.30;;;;;;20817452;28;20052;-18
2021/07/23 07:38:29;;;;;;;4.55;2.85;;;21.40;60.60;;;;;;20816526;28;20440;-18
2021/07/23 07:48:29;;;;;;;8.52;2.83;;;21.40;60.30;;;;;;20778472;28;20443;-18
2021/07/23 07:58:30;;;;;;;5.28;2.45;;;21.40;60.20;;;;;;20832600;28;20022;-18
2021/07/23 08:08:31;;;;;;;5.80;1.83;;;21.40;60.30;;;;;;20831487;28;20500;-18
2021/07/23 08:18:33;;;;;;;7.43;2.20;;;21.40;60.20;;;;;;20816381;28;20021;-18
2021/07/23 08:28:34;;;;;;;4.22;2.10;;;21.40;59.70;;;;;;20793435;28;20113;-19
2021/07/23 08:38:35;;;;;;;3.90;1.75;;;21.40;59.20;;;;;;20787950;28;20061;-19
2021/07/23 08:48:35;;;;;;;7.00;3.33;;;21.40;58.90;;;;;;20824414;28;20033;-19
2021/07/23 08:58:37;;;;;;;3.72;1.60;;;21.50;58.80;;;;;;20838455;28;20044;-20
2021/07/23 09:08:48;;;;;;;3.55;1.30;;;21.50;58.60;;;;;;20833447;28;20030;-20
2021/07/23 09:19:05;;;;;;;2.38;1.55;;;21.50;58.10;;;;;;20834310;28;20490;-21
2021/07/23 09:29:06;;;;;;;6.72;1.73;;;21.50;58.50;;;;;;20827658;28;20052;-19
2021/07/23 09:39:07;;;;;;;3.33;1.35;;;21.50;58.00;;;;;;20828352;28;20029;-19
2021/07/23 09:49:26;;;;;;;2.25;1.35;;;21.60;57.90;;;;;;20804901;28;20109;-19
2021/07/23 09:59:37;;;;;;;;;;;21.60;57.30;;;;;;20792061;28;20080;-19
2021/07/23 10:09:40;;;;;;;3.92;2.08;;;21.60;57.40;;;;;;20783405;28;19914;-19
2021/07/23 10:19:41;;;;;;;5.03;1.50;;;21.60;57.30;;;;;;20781084;28;20029;-19
2021/07/23 10:29:43;;;;;;;4.32;1.80;;;21.70;57.50;;;;;;20782043;28;20040;-20
2021/07/23 10:40:09;;;;;;;4.95;2.28;;;21.70;57.60;;;;;;20833472;28;20083;-19
2021/07/23 10:50:28;;;;;;;5.28;1.63;;;21.70;57.60;;;;;;20837303;28;20063;-19
2021/07/23 11:00:43;;;;;;;;;;;21.70;58.20;;;;;;20812231;28;20123;-20
2021/07/23 11:10:43;;;;;;;6.13;2.42;;;21.70;57.70;;;;;;20806137;28;20012;-19
2021/07/23 11:20:44;;;;;;;3.90;2.08;;;21.70;57.30;;;;;;20820828;28;20635;-19
2021/07/23 11:30:46;;;;;;;4.32;2.33;;;21.70;57.10;;;;;;20830992;28;20064;-19
2021/07/23 11:40:47;;;;;;;3.05;2.25;;;21.70;57.40;;;;;;20771869;28;20054;-20
2021/07/23 11:50:57;;;;;;;3.25;2.08;;;21.80;57.10;;;;;;20761755;28;20305;-19
2021/07/23 12:00:57;;;;;;;2.85;2.40;;;21.70;57.00;;;;;;20806429;28;20122;-19
2021/07/23 12:11:00;;;;;;;4.55;2.22;;;21.70;57.10;;;;;;20836957;28;20022;-19
2021/07/23 12:21:08;;;;;;;3.13;2.22;;;21.70;58.00;;;;;;20833755;28;20033;-19
2021/07/23 12:31:17;;;;;;;3.65;2.15;;;21.70;57.70;;;;;;20830960;28;20461;-19
2021/07/23 12:41:24;;;;;;;3.13;2.13;;;21.70;57.60;;;;;;20837812;28;20026;-19
2021/07/23 12:51:25;;;;;;;4.90;2.10;;;21.60;58.00;;;;;;20831112;28;20099;-19
2021/07/23 13:01:26;;;;;;;3.08;2.38;;;21.70;58.30;;;;;;20834577;28;20041;-18
2021/07/23 13:11:26;;;;;;;5.45;2.35;;;21.60;58.30;;;;;;20828669;28;20057;-19
2021/07/23 13:21:27;;;;;;;5.15;2.80;;;21.70;58.40;;;;;;20827530;28;20694;-19
2021/07/23 13:31:28;;;;;;;7.20;2.80;;;21.70;58.30;;;;;;20811136;28;20394;-18
2021/07/23 13:41:37;;;;;;;12.80;4.40;;;21.70;58.80;;;;;;20894275;23;20556;-19
2021/07/23 13:51:37;;;;;;;15.93;3.92;;;21.70;58.80;;;;;;20906383;28;20065;-19
2021/07/23 14:01:38;;;;;;;13.95;3.65;;;21.70;59.30;;;;;;20904344;28;20029;-19
2021/07/23 14:11:38;;;;;;;5.93;3.15;;;21.70;58.60;;;;;;20903307;28;20505;-19
2021/07/23 14:21:39;;;;;;;9.25;3.17;;;21.70;58.80;;;;;;20906268;28;20488;-19
2021/07/23 14:31:39;;;;;;;6.28;3.50;;;21.70;58.80;;;;;;20904477;28;20029;-19
2021/07/23 14:41:41;;;;;;;6.70;3.33;;;21.70;58.60;;;;;;20905146;28;20111;-19
2021/07/23 14:51:41;;;;;;;8.57;3.00;;;21.70;58.90;;;;;;20904907;28;20116;-18
2021/07/23 15:01:42;;;;;;;8.13;2.88;;;21.70;58.80;;;;;;20904114;28;20055;-19
2021/07/23 15:11:43;;;;;;;6.53;3.10;;;21.70;59.00;;;;;;20906283;28;20100;-18
2021/07/23 15:21:43;;;;;;;10.45;3.38;;;21.80;59.10;;;;;;20902978;28;20116;-20
2021/07/23 15:31:44;;;;;;;4.80;3.30;;;21.90;59.30;;;;;;20903139;28;20067;-19
2021/07/23 15:41:45;;;;;;;8.10;4.32;;;21.80;59.60;;;;;;20907234;28;20052;-20
2021/07/23 15:51:46;;;;;;;7.45;3.00;;;21.80;59.00;;;;;;20901904;28;20052;-19
2021/07/23 16:01:46;;;;;;;5.35;3.13;;;21.80;59.00;;;;;;20903435;28;20056;-20
2021/07/23 16:11:47;;;;;;;5.50;3.58;;;21.80;59.40;;;;;;20906629;28;20115;-17
2021/07/23 16:21:47;;;;;;;4.72;3.08;;;21.80;59.60;;;;;;20916043;28;20104;-19
2021/07/23 16:31:48;;;;;;;8.68;3.70;;;21.90;59.50;;;;;;20915721;28;20092;-19
2021/07/23 16:41:48;;;;;;;11.60;4.55;;;21.90;59.30;;;;;;20910434;28;20100;-19
2021/07/23 16:51:49;;;;;;;5.88;4.43;;;22.00;58.90;;;;;;20912859;28;20039;-20
2021/07/23 17:01:49;;;;;;;9.60;6.25;;;22.10;59.00;;;;;;20924509;28;20116;-19
2021/07/23 17:11:50;;;;;;;6.63;5.10;;;22.10;59.00;;;;;;20915252;28;20057;-19
2021/07/23 17:21:50;;;;;;;10.52;5.78;;;22.10;59.00;;;;;;20927788;28;20106;-20
2021/07/23 17:31:51;;;;;;;7.47;4.65;;;22.10;58.90;;;;;;20909809;28;20508;-19
2021/07/23 17:41:52;;;;;;;9.07;5.15;;;22.20;58.90;;;;;;20908730;28;20505;-19
2021/07/23 17:51:52;;;;;;;9.48;4.57;;;22.20;58.90;;;;;;20906988;28;20075;-19
2021/07/23 18:01:53;;;;;;;14.40;5.70;;;22.10;59.10;;;;;;20902815;28;20443;-20
2021/07/23 18:11:53;;;;;;;9.85;4.22;;;22.00;59.10;;;;;;20902765;28;20378;-20
2021/07/23 18:21:54;;;;;;;14.52;4.18;;;22.00;59.40;;;;;;20903502;28;20029;-19
2021/07/23 18:31:55;;;;;;;7.70;5.00;;;21.90;59.40;;;;;;20908010;28;20036;-22
2021/07/23 18:41:56;;;;;;;7.55;4.03;;;21.90;59.40;;;;;;20917486;28;20532;-20
2021/07/23 18:51:56;;;;;;;8.65;5.50;;;21.90;59.50;;;;;;20919235;28;20029;-19
2021/07/23 19:01:58;;;;;;;9.60;4.07;;;21.80;59.60;;;;;;20916755;28;20033;-19
2021/07/23 19:12:00;;;;;;;12.55;3.80;;;21.80;59.60;;;;;;20917883;28;20040;-18
2021/07/23 19:22:02;;;;;;;5.47;3.00;;;21.70;59.30;;;;;;20906175;28;20029;-18
2021/07/23 19:32:03;;;;;;;8.52;3.38;;;21.70;59.20;;;;;;20901729;28;20036;-19
2021/07/23 19:42:03;;;;;;;4.45;2.85;;;21.70;59.00;;;;;;20907980;28;20041;-20
2021/07/23 19:52:04;;;;;;;4.47;2.53;;;21.80;58.90;;;;;;20913163;28;20112;-19
2021/07/23 20:02:05;;;;;;;4.90;2.63;;;21.70;58.90;;;;;;20918418;28;20477;-20
2021/07/23 20:12:06;;;;;;;3.85;2.53;;;21.70;58.90;;;;;;20917912;28;20025;-19
2021/07/23 20:22:07;;;;;;;4.18;3.10;;;21.70;58.90;;;;;;20915881;28;20029;-20
2021/07/23 20:32:08;;;;;;;4.50;3.60;;;21.70;59.00;;;;;;20915878;28;20113;-20
2021/07/23 20:42:08;;;;;;;6.72;3.28;;;21.60;59.00;;;;;;20914308;28;20137;-19
2021/07/23 20:52:09;;;;;;;6.70;4.20;;;21.60;59.20;;;;;;20912943;28;20064;-20
2021/07/23 21:02:09;;;;;;;5.28;3.45;;;21.60;59.20;;;;;;20912803;28;20087;-20
2021/07/23 21:12:10;;;;;;;5.18;4.15;;;21.60;59.30;;;;;;20912715;28;20366;-19
2021/07/23 21:22:10;;;;;;;4.38;3.42;;;21.60;59.30;;;;;;20911032;28;20021;-18
2021/07/23 21:32:11;;;;;;;5.60;3.97;;;21.60;59.50;;;;;;20905939;28;20029;-19
2021/07/23 21:42:11;;;;;;;5.38;3.47;;;21.60;59.50;;;;;;20907963;28;20033;-19
2021/07/23 21:52:12;;;;;;;7.57;3.92;;;21.60;59.60;;;;;;20903242;28;20040;-20
2021/07/23 22:02:14;;;;;;;11.45;5.07;;;21.60;60.00;;;;;;20904339;28;20017;-19
2021/07/23 22:12:15;;;;;;;11.73;4.50;;;21.60;60.40;;;;;;20886350;28;20386;-19
2021/07/23 22:22:15;;;;;;;8.80;4.43;;;21.60;60.70;;;;;;20904165;28;20101;-19
2021/07/23 22:32:16;;;;;;;11.30;4.57;;;21.60;61.10;;;;;;20904268;28;20027;-20
2021/07/23 22:42:17;;;;;;;11.80;4.87;;;21.60;61.20;;;;;;20903587;28;20467;-19
2021/07/23 22:52:17;;;;;;;7.93;4.65;;;21.60;61.30;;;;;;20905150;28;20495;-18
2021/07/23 23:02:18;;;;;;;10.52;5.25;;;21.60;61.10;;;;;;20904614;28;20392;-19
2021/07/23 23:12:19;;;;;;;8.68;4.15;;;21.60;61.10;;;;;;20907846;28;20120;-20
2021/07/23 23:22:19;;;;;;;19.45;5.63;;;21.60;61.10;;;;;;20914431;28;20719;-19
2021/07/23 23:32:21;;;;;;;10.50;4.82;;;21.60;61.00;;;;;;20921282;28;20028;-19
2021/07/23 23:42:21;;;;;;;9.10;4.88;;;21.60;61.10;;;;;;20923166;28;20063;-20
2021/07/23 23:52:22;;;;;;;9.13;4.55;;;21.60;61.00;;;;;;20916657;28;20054;-19
